createdAt,value
2022-11-25T00:01:42.661Z,73.37
2022-11-25T00:04:11.527Z,73.03
2022-11-25T00:06:40.649Z,73.19
2022-11-25T00:09:13.407Z,72.90
2022-11-25T00:11:44.438Z,72.49
2022-11-25T00:14:16.137Z,72.62
2022-11-25T00:16:48.345Z,72.80
2022-11-25T00:19:18.096Z,72.92
2022-11-25T00:21:47.423Z,72.49
2022-11-25T00:24:17.440Z,72.38
2022-11-25T00:26:46.752Z,72.86
2022-11-25T00:29:16.106Z,73.38
2022-11-25T00:31:45.338Z,72.33
2022-11-25T00:34:16.222Z,72.48
2022-11-25T00:36:46.188Z,72.96
2022-11-25T00:39:19.791Z,72.87
2022-11-25T00:42:07.674Z,72.54
2022-11-25T00:44:38.871Z,72.40
2022-11-25T00:47:17.146Z,72.50
2022-11-25T00:49:49.264Z,72.61
2022-11-25T00:52:21.713Z,72.44
2022-11-25T00:54:52.199Z,71.41
2022-11-25T00:57:24.338Z,71.65
2022-11-25T00:59:54.911Z,72.25
2022-11-25T01:02:25.722Z,72.92
2022-11-25T01:04:58.467Z,73.05
2022-11-25T01:07:29.736Z,73.09
2022-11-25T01:10:00.537Z,73.87
2022-11-25T01:12:31.950Z,73.90
2022-11-25T01:15:03.014Z,74.35
2022-11-25T01:17:34.385Z,74.63
2022-11-25T01:20:05.527Z,74.36
2022-11-25T01:22:36.675Z,74.68
2022-11-25T01:25:08.152Z,75.10
2022-11-25T01:27:44.234Z,75.50
2022-11-25T01:30:15.237Z,76.05
2022-11-25T01:32:45.458Z,75.80
2022-11-25T01:35:15.755Z,76.01
2022-11-25T01:37:46.404Z,76.40
2022-11-25T01:40:17.350Z,76.36
2022-11-25T01:42:51.141Z,76.06
2022-11-25T01:45:39.953Z,76.16
2022-11-25T01:48:44.816Z,75.78
2022-11-25T01:51:44.450Z,75.99
2022-11-25T01:54:18.216Z,76.42
2022-11-25T01:56:55.765Z,76.38
2022-11-25T01:59:26.595Z,75.94
2022-11-25T02:01:58.446Z,75.74
2022-11-25T02:04:35.847Z,75.37
2022-11-25T02:07:16.845Z,75.20
2022-11-25T02:09:48.997Z,75.12
2022-11-25T02:12:21.934Z,75.59
2022-11-25T02:14:53.652Z,75.79
2022-11-25T02:17:24.021Z,76.03
2022-11-25T02:20:33.042Z,75.68
2022-11-25T02:23:16.530Z,75.72
2022-11-25T02:25:49.279Z,75.55
2022-11-25T02:28:32.757Z,75.95
2022-11-25T02:31:06.081Z,75.93
2022-11-25T02:33:38.286Z,75.15
2022-11-25T02:36:14.769Z,75.47
2022-11-25T02:39:00.372Z,74.93
2022-11-25T02:41:45.878Z,74.79
2022-11-25T02:44:17.090Z,74.66
2022-11-25T02:46:47.233Z,74.26
2022-11-25T02:49:18.005Z,73.77
2022-11-25T02:51:48.326Z,74.03
2022-11-25T02:54:20.918Z,73.73
2022-11-25T02:56:52.772Z,73.68
2022-11-25T02:59:23.037Z,73.51
2022-11-25T03:01:53.599Z,72.89
2022-11-25T03:04:23.917Z,72.33
2022-11-25T03:06:54.456Z,72.72
2022-11-25T03:09:26.757Z,72.20
2022-11-25T03:12:15.424Z,71.89
2022-11-25T03:14:45.522Z,72.24
2022-11-25T03:17:17.222Z,71.26
2022-11-25T03:19:48.039Z,70.59
2022-11-25T03:22:19.471Z,70.34
2022-11-25T03:24:49.865Z,69.64
2022-11-25T03:27:20.319Z,69.55
2022-11-25T03:29:50.764Z,69.26
2022-11-25T03:32:21.271Z,69.13
2022-11-25T03:34:51.692Z,69.22
2022-11-25T03:37:22.385Z,68.46
2022-11-25T03:39:53.351Z,68.68
2022-11-25T03:42:23.981Z,68.43
2022-11-25T03:44:53.480Z,67.78
2022-11-25T03:47:23.251Z,67.32
2022-11-25T03:49:53.061Z,68.27
2022-11-25T03:52:22.598Z,67.90
2022-11-25T03:54:52.623Z,67.74
2022-11-25T03:57:24.291Z,67.14
2022-11-25T03:59:54.679Z,66.74
2022-11-25T04:02:24.154Z,66.81
2022-11-25T04:04:53.513Z,66.82
2022-11-25T04:07:23.118Z,66.49
2022-11-25T04:09:52.763Z,65.87
2022-11-25T04:12:45.240Z,66.09
2022-11-25T04:15:17.738Z,66.39
2022-11-25T04:17:51.760Z,66.11
2022-11-25T04:20:21.674Z,65.76
2022-11-25T04:23:00.251Z,65.75
2022-11-25T04:25:29.827Z,65.50
2022-11-25T04:28:00.229Z,66.49
2022-11-25T04:30:35.281Z,66.89
2022-11-25T04:33:06.222Z,66.42
2022-11-25T04:35:35.945Z,64.69
2022-11-25T04:38:05.839Z,64.90
2022-11-25T04:40:37.888Z,64.34
2022-11-25T04:43:20.115Z,63.55
2022-11-25T04:46:13.594Z,64.68
2022-11-25T04:48:47.932Z,63.34
2022-11-25T04:51:19.438Z,63.58
2022-11-25T04:53:52.661Z,62.67
2022-11-25T04:56:24.487Z,62.65
2022-11-25T04:59:14.573Z,62.10
2022-11-25T05:01:48.207Z,61.80
2022-11-25T05:04:34.430Z,60.96
2022-11-25T05:07:04.386Z,61.22
2022-11-25T05:09:34.437Z,60.75
2022-11-25T05:12:22.610Z,60.89
2022-11-25T05:14:52.495Z,60.33
2022-11-25T05:17:27.300Z,60.77
2022-11-25T05:19:58.242Z,60.70
2022-11-25T05:22:31.070Z,60.79
2022-11-25T05:25:02.157Z,60.90
2022-11-25T05:27:33.082Z,59.89
2022-11-25T05:30:08.202Z,60.58
2022-11-25T05:32:38.283Z,60.13
2022-11-25T05:35:12.416Z,58.84
2022-11-25T05:37:43.093Z,59.04
2022-11-25T05:40:13.254Z,57.96
2022-11-25T05:43:06.051Z,58.04
2022-11-25T05:45:41.040Z,58.06
2022-11-25T05:48:12.189Z,57.31
2022-11-25T05:50:42.034Z,57.15
2022-11-25T05:53:24.397Z,56.66
2022-11-25T05:56:02.115Z,55.78
2022-11-25T05:58:50.129Z,55.64
2022-11-25T06:01:21.039Z,55.59
2022-11-25T06:03:53.409Z,55.14
2022-11-25T06:06:23.709Z,55.30
2022-11-25T06:08:54.037Z,54.86
2022-11-25T06:11:26.664Z,53.85
2022-11-25T06:13:59.480Z,53.83
2022-11-25T06:16:31.003Z,53.93
2022-11-25T06:19:21.149Z,53.01
2022-11-25T06:21:50.816Z,53.41
2022-11-25T06:24:20.874Z,53.83
2022-11-25T06:26:57.136Z,53.43
2022-11-25T06:29:26.751Z,52.56
2022-11-25T06:31:58.469Z,52.98
2022-11-25T06:34:34.245Z,52.17
2022-11-25T06:37:06.456Z,52.06
2022-11-25T06:39:36.460Z,52.25
2022-11-25T06:42:06.710Z,51.83
2022-11-25T06:44:37.781Z,51.42
2022-11-25T06:47:07.403Z,51.76
2022-11-25T06:49:36.799Z,52.04
2022-11-25T06:52:06.482Z,50.60
2022-11-25T06:54:37.622Z,50.90
2022-11-25T06:57:07.565Z,50.83
2022-11-25T06:59:37.539Z,50.57
2022-11-25T07:02:07.371Z,49.97
2022-11-25T07:04:37.660Z,50.05
2022-11-25T07:07:08.455Z,49.25
2022-11-25T07:09:38.271Z,49.41
2022-11-25T07:12:09.013Z,48.55
2022-11-25T07:14:38.604Z,48.22
2022-11-25T07:17:11.984Z,49.31
2022-11-25T07:19:42.060Z,48.97
2022-11-25T07:22:11.716Z,49.22
2022-11-25T07:24:46.030Z,49.06
2022-11-25T07:27:15.659Z,48.18
2022-11-25T07:32:36.459Z,48.72
2022-11-25T07:35:09.575Z,49.45
2022-11-25T07:37:38.935Z,49.33
2022-11-25T07:40:09.658Z,48.20
2022-11-25T07:42:39.384Z,47.97
2022-11-25T07:45:11.260Z,46.98
2022-11-25T07:47:47.201Z,47.06
2022-11-25T07:50:19.065Z,46.73
2022-11-25T07:52:49.860Z,47.07
2022-11-25T07:55:19.383Z,48.82
2022-11-25T07:57:51.749Z,49.49
2022-11-25T08:00:24.704Z,49.77
2022-11-25T08:02:54.791Z,49.43
2022-11-25T08:05:24.578Z,50.10
2022-11-25T08:07:54.043Z,48.68
2022-11-25T08:10:23.795Z,48.94
2022-11-25T08:12:54.398Z,49.52
2022-11-25T08:15:26.456Z,49.28
2022-11-25T08:17:56.519Z,49.48
2022-11-25T08:20:26.187Z,49.22
2022-11-25T08:22:58.384Z,49.44
2022-11-25T08:25:28.119Z,49.24
2022-11-25T08:27:58.613Z,49.19
2022-11-25T08:30:29.341Z,48.76
2022-11-25T08:32:59.829Z,48.39
2022-11-25T08:35:29.529Z,49.32
2022-11-25T08:37:59.696Z,49.01
2022-11-25T08:40:29.112Z,48.77
2022-11-25T08:42:58.805Z,49.34
2022-11-25T08:45:29.685Z,48.76
2022-11-25T08:47:59.880Z,48.22
2022-11-25T08:50:32.190Z,48.11
2022-11-25T08:53:02.870Z,47.45
2022-11-25T08:55:38.116Z,48.04
2022-11-25T08:58:13.664Z,47.82
2022-11-25T09:00:48.379Z,47.68
2022-11-25T09:03:18.504Z,48.14
2022-11-25T09:05:58.227Z,47.83
2022-11-25T09:08:28.205Z,48.09
2022-11-25T09:10:58.254Z,48.03
2022-11-25T09:13:28.691Z,48.17
2022-11-25T09:15:59.537Z,48.53
2022-11-25T09:18:33.787Z,48.22
2022-11-25T09:21:15.244Z,48.52
2022-11-25T09:23:55.256Z,49.28
2022-11-25T09:26:28.285Z,49.20
2022-11-25T09:28:57.935Z,47.62
2022-11-25T09:31:28.123Z,48.87
2022-11-25T09:33:58.975Z,48.97
2022-11-25T09:36:31.911Z,48.87
2022-11-25T09:39:08.029Z,48.81
2022-11-25T09:42:12.908Z,48.14
2022-11-25T09:45:21.672Z,49.53
2022-11-25T09:48:16.021Z,49.41
2022-11-25T09:51:00.764Z,48.97
2022-11-25T09:53:49.060Z,49.08
2022-11-25T09:56:48.051Z,48.20
2022-11-25T09:59:48.980Z,48.24
2022-11-25T10:02:35.751Z,49.31
2022-11-25T10:05:09.650Z,49.87
2022-11-25T10:07:45.151Z,48.29
2022-11-25T10:10:48.834Z,48.59
2022-11-25T10:13:51.000Z,49.06
2022-11-25T10:16:37.470Z,48.62
2022-11-25T10:19:15.948Z,49.00
2022-11-25T10:21:47.689Z,49.66
2022-11-25T10:24:19.855Z,49.19
2022-11-25T10:27:12.105Z,49.40
2022-11-25T10:29:42.062Z,49.77
2022-11-25T10:32:27.125Z,50.36
2022-11-25T10:35:04.200Z,50.09
2022-11-25T10:37:40.257Z,50.67
2022-11-25T10:40:19.925Z,51.45
2022-11-25T10:42:49.586Z,50.89
2022-11-25T10:45:22.246Z,49.68
2022-11-25T10:48:15.714Z,49.95
2022-11-25T10:51:02.966Z,51.18
2022-11-25T10:53:34.182Z,51.35
2022-11-25T10:56:07.367Z,51.20
2022-11-25T10:58:39.491Z,51.81
2022-11-25T11:01:17.204Z,52.12
2022-11-25T11:03:52.579Z,52.97
2022-11-25T11:06:43.837Z,53.67
2022-11-25T11:09:33.742Z,54.57
2022-11-25T11:12:25.479Z,54.87
2022-11-25T11:15:16.134Z,55.42
2022-11-25T11:17:45.890Z,56.02
2022-11-25T11:20:32.044Z,56.12
2022-11-25T11:23:15.109Z,56.43
2022-11-25T11:25:55.977Z,56.79
2022-11-25T11:28:43.026Z,58.25
2022-11-25T11:31:27.990Z,58.72
2022-11-25T11:34:03.471Z,58.52
2022-11-25T11:37:28.507Z,58.37
2022-11-25T11:40:22.491Z,58.66
2022-11-25T11:43:21.868Z,59.35
2022-11-25T11:46:27.993Z,59.58
2022-11-25T11:49:17.910Z,60.33
2022-11-25T11:51:58.903Z,60.27
2022-11-25T11:54:54.255Z,61.09
2022-11-25T11:57:54.612Z,61.60
2022-11-25T12:00:24.761Z,61.91
2022-11-25T12:03:19.562Z,61.61
2022-11-25T12:05:55.348Z,62.06
2022-11-25T12:09:04.501Z,61.76
2022-11-25T12:11:43.177Z,61.99
2022-11-25T12:14:46.544Z,61.31
2022-11-25T12:17:19.430Z,61.08
2022-11-25T12:20:00.095Z,62.25
2022-11-25T12:22:43.828Z,62.56
2022-11-25T12:25:23.296Z,62.41
2022-11-25T12:28:12.306Z,62.43
2022-11-25T12:31:05.385Z,63.06
2022-11-25T12:33:45.797Z,63.42
2022-11-25T12:36:31.698Z,63.71
2022-11-25T12:39:13.521Z,64.58
2022-11-25T12:41:57.487Z,64.97
2022-11-25T12:44:41.180Z,65.23
2022-11-25T12:47:13.086Z,65.93
2022-11-25T12:49:48.911Z,66.15
2022-11-25T12:52:34.265Z,65.67
2022-11-25T12:55:13.013Z,67.08
2022-11-25T12:57:55.150Z,66.51
2022-11-25T13:00:45.663Z,67.01
2022-11-25T13:03:44.869Z,65.94
2022-11-25T13:06:23.147Z,65.81
2022-11-25T13:08:58.527Z,65.72
2022-11-25T13:11:37.013Z,66.21
2022-11-25T13:14:27.246Z,66.68
2022-11-25T13:17:01.350Z,67.20
2022-11-25T13:19:31.747Z,68.06
2022-11-25T13:22:30.863Z,68.13
2022-11-25T13:25:00.452Z,67.35
2022-11-25T13:27:48.110Z,67.97
2022-11-25T13:30:36.054Z,67.60
2022-11-25T13:33:28.209Z,67.60
2022-11-25T13:35:58.575Z,69.16
2022-11-25T13:38:52.287Z,68.62
2022-11-25T13:41:26.183Z,68.80
2022-11-25T13:44:02.704Z,68.67
2022-11-25T13:46:46.045Z,69.75
2022-11-25T13:49:45.604Z,70.30
2022-11-25T13:52:15.187Z,69.93
2022-11-25T13:54:54.682Z,69.75
2022-11-25T13:57:29.135Z,69.66
2022-11-25T14:00:28.837Z,70.03
2022-11-25T14:03:21.949Z,70.07
2022-11-25T14:06:29.321Z,70.19
2022-11-25T14:09:05.759Z,70.25
2022-11-25T14:12:00.906Z,70.74
2022-11-25T14:14:49.643Z,70.57
2022-11-25T14:18:00.851Z,70.97
2022-11-25T14:20:42.800Z,71.14
2022-11-25T14:23:33.548Z,71.68
2022-11-25T14:26:47.776Z,71.85
2022-11-25T14:29:10.842Z,71.55
2022-11-25T14:31:54.013Z,72.03
2022-11-25T14:34:33.498Z,72.33
2022-11-25T14:37:27.669Z,72.19
2022-11-25T14:40:36.659Z,72.40
2022-11-25T14:43:27.418Z,72.57
2022-11-25T14:46:19.052Z,73.00
2022-11-25T14:49:14.473Z,72.93
2022-11-25T14:51:56.053Z,72.84
2022-11-25T14:54:26.033Z,72.68
2022-11-25T14:56:55.429Z,72.38
2022-11-25T14:59:26.164Z,72.52
2022-11-25T15:02:00.549Z,72.50
2022-11-25T15:04:34.433Z,72.38
2022-11-25T15:07:23.967Z,71.85
2022-11-25T15:09:57.191Z,72.43
2022-11-25T15:12:32.917Z,72.48
2022-11-25T15:15:02.678Z,73.41
2022-11-25T15:17:35.048Z,73.73
2022-11-25T15:20:13.208Z,74.15
2022-11-25T15:22:51.861Z,74.16
2022-11-25T15:25:23.846Z,73.74
2022-11-25T15:27:54.609Z,74.19
2022-11-25T15:30:32.841Z,73.94
2022-11-25T15:33:04.751Z,74.06
2022-11-25T15:35:35.565Z,74.16
2022-11-25T15:38:39.428Z,74.26
2022-11-25T15:41:17.110Z,73.83
2022-11-25T15:43:55.840Z,73.71
2022-11-25T15:46:27.157Z,74.06
2022-11-25T15:49:04.593Z,74.69
2022-11-25T15:51:52.943Z,74.03
2022-11-25T15:54:30.423Z,74.44
2022-11-25T15:57:04.831Z,74.67
2022-11-25T15:59:42.146Z,74.92
2022-11-25T16:02:33.163Z,74.60
2022-11-25T16:05:17.749Z,74.70
2022-11-25T16:07:56.602Z,74.74
2022-11-25T16:10:51.154Z,75.40
2022-11-25T16:13:34.407Z,75.51
2022-11-25T16:16:12.712Z,75.49
2022-11-25T16:18:58.294Z,75.51
2022-11-25T16:21:47.584Z,76.02
2022-11-25T16:25:00.369Z,75.77
2022-11-25T16:27:35.109Z,75.89
2022-11-25T16:30:07.507Z,76.20
2022-11-25T16:32:37.359Z,76.12
2022-11-25T16:35:18.254Z,76.21
2022-11-25T16:37:49.462Z,76.21
2022-11-25T16:40:21.102Z,76.61
2022-11-25T16:42:52.034Z,76.14
2022-11-25T16:45:24.231Z,76.61
2022-11-25T16:47:54.375Z,76.75
2022-11-25T16:50:26.140Z,76.71
2022-11-25T16:52:55.742Z,76.35
2022-11-25T16:55:28.546Z,76.56
2022-11-25T16:57:58.595Z,76.53
2022-11-25T17:00:28.143Z,76.35
2022-11-25T17:02:57.515Z,76.78
2022-11-25T17:05:31.261Z,76.84
2022-11-25T17:08:00.840Z,76.60
2022-11-25T17:10:31.485Z,76.64
2022-11-25T17:13:04.301Z,76.87
2022-11-25T17:15:39.756Z,76.65
2022-11-25T17:18:13.369Z,77.15
2022-11-25T17:20:42.947Z,76.75
2022-11-25T17:23:18.697Z,77.24
2022-11-25T17:25:50.897Z,77.30
2022-11-25T17:28:26.072Z,77.18
2022-11-25T17:30:58.227Z,77.18
2022-11-25T17:33:28.038Z,77.42
2022-11-25T17:35:57.354Z,77.81
2022-11-25T17:38:27.648Z,77.44
2022-11-25T17:41:00.046Z,77.81
2022-11-25T17:43:34.614Z,77.69
2022-11-25T17:46:07.159Z,77.68
2022-11-25T17:48:37.384Z,77.51
2022-11-25T17:51:09.174Z,77.52
2022-11-25T17:53:40.656Z,77.68
2022-11-25T17:56:31.133Z,77.39
2022-11-25T17:59:12.202Z,77.23
2022-11-25T18:01:44.336Z,77.88
2022-11-25T18:04:40.091Z,77.76
2022-11-25T18:07:11.623Z,77.63
2022-11-25T18:09:42.650Z,77.83
2022-11-25T18:12:28.559Z,77.86
2022-11-25T18:14:58.779Z,78.00
2022-11-25T18:17:28.395Z,78.71
2022-11-25T18:20:00.349Z,78.57
2022-11-25T18:22:31.614Z,78.67
2022-11-25T18:25:04.185Z,79.19
2022-11-25T18:27:37.576Z,78.92
2022-11-25T18:30:09.425Z,78.58
2022-11-25T18:32:38.941Z,78.44
2022-11-25T18:35:36.031Z,78.29
2022-11-25T18:38:07.458Z,78.51
2022-11-25T18:40:41.195Z,79.15
2022-11-25T18:43:19.399Z,79.08
2022-11-25T18:45:49.926Z,79.44
2022-11-25T18:48:25.349Z,79.44
2022-11-25T18:50:58.068Z,79.79
2022-11-25T18:53:27.838Z,79.37
2022-11-25T18:55:57.379Z,79.62
2022-11-25T18:58:29.119Z,79.82
2022-11-25T19:01:05.402Z,79.35
2022-11-25T19:03:35.585Z,79.17
2022-11-25T19:06:09.299Z,78.80
2022-11-25T19:08:38.876Z,78.59
2022-11-25T19:11:17.370Z,78.53
2022-11-25T19:13:51.981Z,78.43
2022-11-25T19:16:24.216Z,78.51
2022-11-25T19:18:53.817Z,78.11
2022-11-25T19:21:23.569Z,78.02
2022-11-25T19:23:52.880Z,78.37
2022-11-25T19:26:36.326Z,78.86
2022-11-25T19:29:12.882Z,79.14
2022-11-25T19:31:43.052Z,79.14
2022-11-25T19:34:28.652Z,78.77
2022-11-25T19:36:58.696Z,79.17
2022-11-25T19:39:29.405Z,79.53
2022-11-25T19:41:58.974Z,79.45
2022-11-25T19:44:29.956Z,79.13
2022-11-25T19:47:14.733Z,79.10
2022-11-25T19:49:45.890Z,79.02
2022-11-25T19:52:23.683Z,79.42
2022-11-25T19:54:53.093Z,79.47
2022-11-25T19:57:25.179Z,79.41
2022-11-25T19:59:54.678Z,79.92
2022-11-25T20:02:28.291Z,79.95
2022-11-25T20:04:58.840Z,79.50
2022-11-25T20:07:31.245Z,79.26
2022-11-25T20:10:25.674Z,80.06
2022-11-25T20:12:58.408Z,79.79
2022-11-25T20:15:28.482Z,80.14
2022-11-25T20:18:01.551Z,79.96
2022-11-25T20:20:34.529Z,79.72
2022-11-25T20:23:04.231Z,79.30
2022-11-25T20:25:43.144Z,79.45
2022-11-25T20:28:33.416Z,79.11
2022-11-25T20:31:02.949Z,79.46
2022-11-25T20:33:32.413Z,79.65
2022-11-25T20:36:08.649Z,79.85
2022-11-25T20:38:39.582Z,79.63
2022-11-25T20:41:09.138Z,80.17
2022-11-25T20:43:42.701Z,79.99
2022-11-25T20:46:24.791Z,80.04
2022-11-25T20:48:58.805Z,80.13
2022-11-25T20:51:29.416Z,80.52
2022-11-25T20:54:04.148Z,80.72
2022-11-25T20:56:33.892Z,80.79
2022-11-25T20:59:03.306Z,80.99
2022-11-25T21:01:32.925Z,81.30
2022-11-25T21:04:02.454Z,81.44
2022-11-25T21:06:39.335Z,81.73
2022-11-25T21:09:21.935Z,81.74
2022-11-25T21:11:51.495Z,81.62
2022-11-25T21:14:21.596Z,81.58
2022-11-25T21:16:51.713Z,82.22
2022-11-25T21:19:21.422Z,81.86
2022-11-25T21:21:53.567Z,81.91
2022-11-25T21:24:23.032Z,81.76
2022-11-25T21:26:53.007Z,82.29
2022-11-25T21:29:23.130Z,82.27
2022-11-25T21:31:52.799Z,82.36
2022-11-25T21:34:22.415Z,82.49
2022-11-25T21:36:54.937Z,82.72
2022-11-25T21:39:33.671Z,82.71
2022-11-25T21:42:07.106Z,82.54
2022-11-25T21:44:42.786Z,82.37
2022-11-25T21:47:17.000Z,82.71
2022-11-25T21:49:46.955Z,82.95
2022-11-25T21:52:17.871Z,82.58
2022-11-25T21:54:47.955Z,82.95
2022-11-25T21:57:33.033Z,83.28
2022-11-25T22:00:02.707Z,83.40
2022-11-25T22:02:34.533Z,83.11
2022-11-25T22:05:03.982Z,82.98
2022-11-25T22:07:33.227Z,83.37
2022-11-25T22:10:02.766Z,83.42
2022-11-25T22:12:36.693Z,83.26
2022-11-25T22:15:17.339Z,83.17
2022-11-25T22:17:47.705Z,83.51
2022-11-25T22:20:31.735Z,83.79
2022-11-25T22:23:02.699Z,83.78
2022-11-25T22:25:34.322Z,83.55
2022-11-25T22:28:03.734Z,83.67
2022-11-25T22:30:33.416Z,83.36
2022-11-25T22:33:04.645Z,83.92
2022-11-25T22:35:34.589Z,83.39
2022-11-25T22:38:04.022Z,83.21
2022-11-25T22:40:33.458Z,82.83
2022-11-25T22:43:03.090Z,82.69
2022-11-25T22:45:34.904Z,82.58
2022-11-25T22:48:08.210Z,83.06
2022-11-25T22:50:37.661Z,83.17
2022-11-25T22:53:16.058Z,83.21
2022-11-25T22:55:46.624Z,83.29
2022-11-25T22:58:16.728Z,83.28
2022-11-25T23:00:48.888Z,82.90
2022-11-25T23:03:24.849Z,82.88
2022-11-25T23:05:55.498Z,82.92
2022-11-25T23:08:30.351Z,83.27
2022-11-25T23:11:00.039Z,83.62
2022-11-25T23:13:29.544Z,82.99
2022-11-25T23:16:04.978Z,82.75
2022-11-25T23:18:40.748Z,83.39
2022-11-25T23:21:21.689Z,83.33
2022-11-25T23:23:51.743Z,83.33
2022-11-25T23:26:21.568Z,83.68
2022-11-25T23:28:51.420Z,84.01
2022-11-25T23:31:20.995Z,83.37
2022-11-25T23:33:52.623Z,83.33
2022-11-25T23:36:31.364Z,83.30
2022-11-25T23:39:03.191Z,83.61
2022-11-25T23:41:36.041Z,83.34
2022-11-25T23:44:25.248Z,83.13
2022-11-25T23:46:58.848Z,83.50
2022-11-25T23:49:59.414Z,83.76
2022-11-25T23:52:29.112Z,84.34
2022-11-25T23:54:59.464Z,84.03
2022-11-25T23:57:34.718Z,84.34
